Time;durP1;ratioP1;P1;durP2;ratioP2;P2;SDS_P1;SDS_P2;PMS_P1;PMS_P2;Temp;Humidity;BMP_temperature;BMP_pressure;BME280_temperature;BME280_humidity;BME280_pressure;Samples;Min_cycle;Max_cycle;Signal;HPM_P1;HPM_P2
2021/07/28 00:01:41;;;;;;;13.85;9.60;;;;;;;16.09;100.00;94023.34;5035102;28;20029;-60
2021/07/28 00:04:06;;;;;;;13.55;8.95;;;;;;;16.08;100.00;94029.84;5033611;28;20029;-59
2021/07/28 00:06:31;;;;;;;10.90;9.10;;;;;;;16.04;100.00;94047.81;5034594;28;20124;-60
2021/07/28 00:09:03;;;;;;;12.23;8.88;;;;;;;16.02;100.00;94052.75;5033910;28;20025;-62
2021/07/28 00:11:31;;;;;;;13.30;9.02;;;;;;;16.02;100.00;94052.75;5034759;28;20072;-60
2021/07/28 00:14:09;;;;;;;16.50;8.90;;;;;;;16.02;100.00;94052.75;5038261;28;20510;-60
2021/07/28 00:16:38;;;;;;;15.38;8.65;;;;;;;16.05;100.00;94052.09;5036644;28;20106;-60
2021/07/28 00:24:37;;;;;;;13.70;9.60;;;;;;;16.09;100.00;94031.44;5054642;28;20109;-59
2021/07/28 00:27:09;;;;;;;11.98;8.18;;;;;;;16.11;100.00;94037.28;5054149;28;20104;-59
2021/07/28 00:29:49;;;;;;;13.35;8.10;;;;;;;16.10;100.00;94030.31;5053979;28;20025;-60
2021/07/28 00:32:14;;;;;;;12.88;7.65;;;;;;;15.93;100.00;94035.78;5036253;28;20024;-60
2021/07/28 00:34:52;;;;;;;8.68;6.63;;;;;;;15.75;100.00;94036.97;5054199;28;20031;-60
2021/07/28 00:37:17;;;;;;;8.48;6.35;;;;;;;15.58;100.00;94057.44;5036477;28;20092;-60
2021/07/28 00:39:43;;;;;;;12.48;6.80;;;;;;;15.57;100.00;94049.69;5053471;28;20163;-60
2021/07/28 00:42:10;;;;;;;9.80;7.30;;;;;;;15.52;100.00;94058.75;5033023;28;20097;-60
2021/07/28 00:44:42;;;;;;;9.48;6.22;;;;;;;15.51;100.00;94064.44;5034123;28;20496;-60
2021/07/28 00:47:11;;;;;;;8.18;6.40;;;;;;;15.47;100.00;94069.69;5034170;28;20036;-59
2021/07/28 00:49:36;;;;;;;9.43;5.90;;;;;;;15.46;100.00;94083.50;5015823;28;20480;-60
2021/07/28 00:52:06;;;;;;;11.43;6.82;;;;;;;15.41;100.00;94081.75;5016210;28;20029;-60
2021/07/28 00:54:35;;;;;;;10.85;6.57;;;;;;;15.40;100.00;94096.34;5016128;28;20149;-60
2021/07/28 00:57:10;;;;;;;10.15;6.68;;;;;;;15.38;100.00;94074.31;5033858;28;20108;-59
2021/07/28 00:59:35;;;;;;;11.35;6.22;;;;;;;15.37;100.00;94078.13;5033244;28;20037;-59
2021/07/28 01:02:06;;;;;;;8.63;6.80;;;;;;;15.33;100.00;94079.88;5033846;28;20021;-59
2021/07/28 01:04:32;;;;;;;8.05;6.35;;;;;;;15.30;100.00;94085.88;5033837;28;20417;-59
2021/07/28 01:06:59;;;;;;;7.93;6.43;;;;;;;15.26;100.00;94093.03;5015779;28;20033;-60
2021/07/28 01:09:28;;;;;;;10.10;6.63;;;;;;;15.24;100.00;94106.06;5032961;28;20042;-59
2021/07/28 01:11:59;;;;;;;9.63;5.85;;;;;;;15.23;100.00;94093.69;5033508;28;20025;-59
2021/07/28 01:14:30;;;;;;;9.65;6.57;;;;;;;15.18;100.00;94097.31;5033691;28;20032;-59
2021/07/28 01:17:13;;;;;;;8.57;6.50;;;;;;;15.17;100.00;94119.22;5033742;28;20022;-59
2021/07/28 01:19:48;;;;;;;;;;;;;;;15.14;100.00;94122.56;5033830;28;20028;-60
2021/07/28 01:22:16;;;;;;;8.80;6.10;;;;;;;15.14;100.00;94122.56;5033361;28;19916;-60
2021/07/28 01:24:42;;;;;;;9.70;6.25;;;;;;;15.12;100.00;94122.09;5015709;28;20388;-59
2021/07/28 01:27:08;;;;;;;9.52;6.68;;;;;;;15.12;100.00;94111.31;5033320;28;20055;-60
2021/07/28 01:29:35;;;;;;;9.07;6.28;;;;;;;15.08;100.00;94105.72;5015109;28;20026;-59
2021/07/28 01:32:04;;;;;;;11.88;6.65;;;;;;;15.07;100.00;94104.13;5033143;28;20029;-60
2021/07/28 01:34:37;;;;;;;11.57;6.40;;;;;;;15.05;100.00;94100.97;4999219;28;20502;-60
2021/07/28 01:37:08;;;;;;;11.35;6.47;;;;;;;15.03;100.00;94108.59;5015439;28;20033;-60
2021/07/28 01:39:51;;;;;;;9.15;6.50;;;;;;;15.01;100.00;94105.41;5032383;28;20022;-60
2021/07/28 01:42:16;;;;;;;;;;;;;;;14.95;100.00;94093.97;5041550;28;20059;-60
2021/07/28 01:44:43;;;;;;;6.63;5.67;;;;;;;14.93;100.00;94095.41;5032305;28;20003;-60
2021/07/28 01:47:08;;;;;;;8.55;6.32;;;;;;;14.92;100.00;94100.00;5032989;28;20808;-59
2021/07/28 01:49:44;;;;;;;8.18;6.82;;;;;;;14.94;100.00;94094.31;5031873;28;20061;-59
2021/07/28 01:52:10;;;;;;;10.05;7.00;;;;;;;14.96;100.00;94092.06;5033123;28;20033;-60
2021/07/28 01:54:35;;;;;;;14.77;7.22;;;;;;;14.99;100.00;94077.97;5032727;28;20366;-58
2021/07/28 01:57:09;;;;;;;9.30;6.80;;;;;;;14.97;100.00;94080.97;5032744;28;20025;-60
2021/07/28 01:59:40;;;;;;;9.35;6.43;;;;;;;14.94;100.00;94088.91;5032116;28;20021;-59
2021/07/28 02:02:06;;;;;;;8.50;6.65;;;;;;;14.92;100.00;94094.63;5032685;28;20040;-60
2021/07/28 02:04:31;;;;;;;10.00;6.93;;;;;;;14.89;100.00;94089.06;5032496;28;20606;-60
2021/07/28 02:07:02;;;;;;;10.70;7.07;;;;;;;14.87;100.00;94081.31;5032531;28;20021;-60
2021/07/28 02:09:34;;;;;;;8.52;6.78;;;;;;;14.89;100.00;94068.28;5031663;28;20061;-60
2021/07/28 02:12:02;;;;;;;10.20;7.15;;;;;;;14.87;100.00;94073.22;5031266;28;20028;-60
2021/07/28 02:14:27;;;;;;;13.93;7.30;;;;;;;14.85;100.00;94075.41;5031107;28;20040;-60
2021/07/28 02:16:55;;;;;;;8.38;6.53;;;;;;;14.82;100.00;94081.44;5032437;28;20025;-60
2021/07/28 02:19:23;;;;;;;10.23;6.82;;;;;;;14.79;100.00;94076.69;5031837;28;20384;-60
2021/07/28 02:21:49;;;;;;;12.35;7.43;;;;;;;14.78;100.00;94078.59;5032288;28;20107;-59
2021/07/28 02:24:17;;;;;;;10.20;7.43;;;;;;;14.77;100.00;94074.31;5032277;28;20052;-59
2021/07/28 02:26:46;;;;;;;10.68;7.20;;;;;;;14.76;100.00;94072.72;5030770;28;20029;-60
2021/07/28 02:29:11;;;;;;;12.88;6.78;;;;;;;14.76;100.00;94080.00;5031870;28;20036;-58
2021/07/28 02:31:37;;;;;;;11.63;7.13;;;;;;;14.71;100.00;94078.25;5031012;28;20404;-60
2021/07/28 02:34:11;;;;;;;7.95;6.32;;;;;;;14.64;100.00;94071.72;5037698;28;20036;-60
2021/07/28 02:36:39;;;;;;;9.25;6.70;;;;;;;14.56;100.00;94070.63;5043981;28;20496;-60
2021/07/28 02:39:04;;;;;;;11.18;5.90;;;;;;;14.52;100.00;94079.63;5031549;28;20088;-60
2021/07/28 02:41:32;;;;;;;11.00;7.22;;;;;;;14.53;100.00;94081.22;5045641;28;20021;-60
2021/07/28 02:44:01;;;;;;;9.52;7.43;;;;;;;14.53;100.00;94073.94;5031911;28;20383;-60
2021/07/28 02:46:38;;;;;;;8.15;6.57;;;;;;;14.54;100.00;94061.25;5031817;28;20472;-60
2021/07/28 02:49:04;;;;;;;11.10;7.07;;;;;;;14.53;100.00;94063.16;5030075;28;20060;-60
2021/07/28 02:51:38;;;;;;;8.13;6.22;;;;;;;14.57;100.00;94053.34;5031786;28;20035;-60
2021/07/28 02:54:04;;;;;;;10.40;6.85;;;;;;;14.58;100.00;94054.94;5031662;28;20392;-60
2021/07/28 02:56:29;;;;;;;8.88;7.05;;;;;;;14.56;100.00;94057.16;5030395;28;20021;-60
2021/07/28 02:59:04;;;;;;;8.57;6.20;;;;;;;14.54;100.00;94062.03;5031209;28;20100;-60
2021/07/28 03:01:32;;;;;;;10.02;7.47;;;;;;;14.52;100.00;94063.47;5030810;28;20057;-60
2021/07/28 03:04:07;;;;;;;10.75;6.80;;;;;;;14.50;100.00;94061.09;5031716;28;20022;-60
2021/07/28 03:06:36;;;;;;;7.90;6.65;;;;;;;14.46;100.00;94054.75;5031483;28;20064;-60
2021/07/28 03:09:01;;;;;;;8.95;6.43;;;;;;;14.41;100.00;94052.97;5030522;28;20032;-60
2021/07/28 03:11:28;;;;;;;9.88;6.90;;;;;;;14.37;100.00;94065.47;5031519;28;20017;-60
2021/07/28 03:13:54;;;;;;;15.65;7.22;;;;;;;14.35;100.00;94053.44;5031404;28;20431;-60
2021/07/28 03:16:19;;;;;;;9.77;7.03;;;;;;;14.32;100.00;94054.84;5031595;28;20056;-60
2021/07/28 03:18:45;;;;;;;10.55;6.40;;;;;;;14.32;100.00;94054.03;5013175;28;20163;-59
2021/07/28 03:21:10;;;;;;;9.40;7.28;;;;;;;14.34;100.00;94049.94;5031643;28;20171;-60
2021/07/28 03:23:49;;;;;;;10.73;7.40;;;;;;;14.34;100.00;94060.72;5013849;28;20033;-58
2021/07/28 03:26:17;;;;;;;13.82;7.43;;;;;;;14.32;100.00;94048.66;5031433;28;20037;-59
2021/07/28 03:28:42;;;;;;;8.55;6.70;;;;;;;14.34;100.00;94049.94;5030845;28;20037;-60
2021/07/28 03:31:10;;;;;;;9.50;6.65;;;;;;;14.36;100.00;94042.34;5031527;28;20029;-59
2021/07/28 03:33:44;;;;;;;10.00;6.70;;;;;;;14.36;100.00;94044.25;5013613;28;20028;-59
2021/07/28 03:36:16;;;;;;;9.13;6.68;;;;;;;14.33;100.00;94042.19;5031318;28;20025;-59
2021/07/28 03:38:49;;;;;;;9.57;6.80;;;;;;;14.31;100.00;94042.47;5030834;28;20021;-60
2021/07/28 03:41:19;;;;;;;11.63;6.50;;;;;;;14.30;100.00;94042.78;5043579;28;20024;-59
2021/07/28 03:43:45;;;;;;;9.77;7.20;;;;;;;14.28;100.00;94039.63;5031880;28;20033;-59
2021/07/28 03:46:12;;;;;;;10.93;6.90;;;;;;;14.26;100.00;94048.03;5030038;28;20374;-59
2021/07/28 03:48:37;;;;;;;14.30;6.82;;;;;;;14.28;100.00;94036.94;5030889;28;20468;-60
2021/07/28 03:51:15;;;;;;;9.25;6.93;;;;;;;14.31;100.00;94033.59;5031048;28;20072;-60
2021/07/28 03:53:43;;;;;;;10.20;7.20;;;;;;;14.30;100.00;94024.72;5031281;28;20026;-60
2021/07/28 03:56:09;;;;;;;8.32;6.70;;;;;;;14.30;100.00;94013.94;5031253;28;20018;-60
2021/07/28 03:58:34;;;;;;;10.32;6.38;;;;;;;14.30;100.00;94010.47;5030665;28;20067;-60
2021/07/28 04:01:02;;;;;;;9.50;6.65;;;;;;;14.29;100.00;94006.19;5013593;28;20388;-59
2021/07/28 04:03:33;;;;;;;8.38;6.53;;;;;;;14.26;100.00;94006.81;5030688;28;20025;-60
2021/07/28 04:06:03;;;;;;;9.48;7.00;;;;;;;14.22;100.00;94006.66;5013342;28;20083;-60
2021/07/28 04:08:39;;;;;;;7.55;5.70;;;;;;;14.19;100.00;94008.06;5030682;28;20030;-60
2021/07/28 04:11:09;;;;;;;7.88;6.38;;;;;;;14.18;100.00;94013.78;5041153;28;20421;-48
2021/07/28 04:13:44;;;;;;;10.00;6.57;;;;;;;14.17;100.00;94023.75;5055050;28;20050;-49
2021/07/28 04:16:13;;;;;;;10.82;6.32;;;;;;;14.16;100.00;94026.75;5046621;28;20104;-49
2021/07/28 04:18:43;;;;;;;8.98;6.32;;;;;;;14.17;100.00;94021.06;5035906;28;20029;-48
2021/07/28 04:21:14;;;;;;;7.05;6.03;;;;;;;14.21;100.00;94013.94;5035364;28;20033;-51
2021/07/28 04:23:39;;;;;;;8.38;6.00;;;;;;;14.27;100.00;94019.19;5035165;28;20053;-53
2021/07/28 04:26:07;;;;;;;7.82;6.18;;;;;;;14.29;100.00;94014.28;5017475;28;20063;-55
2021/07/28 04:28:41;;;;;;;8.77;5.63;;;;;;;14.33;100.00;94016.03;5045749;28;20119;-50
2021/07/28 04:31:07;;;;;;;8.65;6.07;;;;;;;14.37;100.00;94008.91;5035074;28;20126;-52
2021/07/28 04:33:50;;;;;;;8.70;5.93;;;;;;;14.41;100.00;94009.06;5034849;28;20498;-51
2021/07/28 04:36:15;;;;;;;7.50;6.05;;;;;;;14.46;100.00;94003.56;5035088;28;20029;-54
2021/07/28 04:38:44;;;;;;;7.40;5.82;;;;;;;14.47;100.00;94000.56;5017398;28;20052;-49
2021/07/28 04:41:12;;;;;;;11.02;6.20;;;;;;;14.46;100.00;93998.19;5025292;28;20369;-49
2021/07/28 04:43:50;;;;;;;11.93;6.18;;;;;;;14.44;100.00;94001.19;5024161;28;20021;-51
2021/07/28 04:46:17;;;;;;;9.07;6.03;;;;;;;14.45;100.00;94010.06;5034472;28;20029;-54
2021/07/28 04:48:45;;;;;;;9.38;6.00;;;;;;;14.44;100.00;94003.88;5036383;28;20028;-51
2021/07/28 04:51:13;;;;;;;11.05;6.72;;;;;;;14.47;100.00;94008.63;5019025;28;20477;-51
2021/07/28 04:53:41;;;;;;;7.70;6.07;;;;;;;14.49;100.00;94005.63;5034078;28;20029;-52
2021/07/28 04:56:14;;;;;;;10.07;6.57;;;;;;;14.48;100.00;94015.59;5016104;28;20022;-53
2021/07/28 04:58:39;;;;;;;9.98;6.50;;;;;;;14.46;100.00;94011.66;5036675;28;20030;-49
2021/07/28 05:01:04;;;;;;;10.98;6.63;;;;;;;14.44;100.00;94011.16;5033264;28;20044;-50
2021/07/28 05:03:38;;;;;;;9.88;6.97;;;;;;;14.43;100.00;94009.53;5033927;28;20028;-52
2021/07/28 05:06:10;;;;;;;13.85;6.05;;;;;;;14.43;100.00;94013.03;5033669;28;20032;-56
2021/07/28 05:08:38;;;;;;;11.73;6.15;;;;;;;14.45;100.00;94010.06;5033532;28;20028;-57
2021/07/28 05:11:18;;;;;;;8.23;6.25;;;;;;;14.44;100.00;94003.88;5033186;28;20068;-51
2021/07/28 05:13:44;;;;;;;10.05;6.45;;;;;;;14.46;100.00;94006.25;5033694;28;20021;-53
2021/07/28 05:16:22;;;;;;;10.88;6.30;;;;;;;14.48;100.00;94007.53;5043090;28;20083;-56
2021/07/28 05:18:47;;;;;;;7.47;5.88;;;;;;;14.49;100.00;94002.94;5033575;28;20060;-55
2021/07/28 05:21:16;;;;;;;8.82;5.72;;;;;;;14.50;100.00;93997.22;5033128;28;20025;-56
2021/07/28 05:23:46;;;;;;;9.95;6.07;;;;;;;14.50;100.00;93996.44;5032836;28;20484;-57
2021/07/28 05:26:21;;;;;;;10.15;7.32;;;;;;;14.52;100.00;93998.81;5032231;28;20570;-60
2021/07/28 05:28:52;;;;;;;9.57;6.32;;;;;;;14.51;100.00;93984.53;5033526;28;20026;-57
2021/07/28 05:31:18;;;;;;;9.13;6.82;;;;;;;14.51;100.00;93989.94;5031530;28;20098;-57
2021/07/28 05:33:56;;;;;;;8.18;6.32;;;;;;;14.52;100.00;93994.22;5033095;28;20029;-58
2021/07/28 05:36:21;;;;;;;9.25;6.35;;;;;;;14.52;100.00;93993.41;5033127;28;20028;-54
2021/07/28 05:38:47;;;;;;;11.80;6.93;;;;;;;14.50;100.00;93994.53;5033093;28;20025;-58
2021/07/28 05:41:12;;;;;;;9.27;6.88;;;;;;;14.50;100.00;93999.13;5032927;28;20067;-57
2021/07/28 05:43:40;;;;;;;10.13;6.20;;;;;;;14.49;100.00;93995.63;5046019;28;20033;-58
2021/07/28 05:46:05;;;;;;;10.60;7.20;;;;;;;14.52;100.00;93993.41;5032670;28;20071;-53
2021/07/28 05:48:31;;;;;;;9.07;6.25;;;;;;;14.52;100.00;93990.72;5036012;28;20382;-57
2021/07/28 05:50:58;;;;;;;10.30;6.38;;;;;;;14.52;100.00;93996.91;5052045;28;20082;-56
2021/07/28 05:53:24;;;;;;;7.55;6.13;;;;;;;14.55;100.00;93998.19;5034978;28;20017;-57
2021/07/28 05:55:53;;;;;;;10.82;6.38;;;;;;;14.56;100.00;93999.78;5052756;28;20029;-57
2021/07/28 05:58:22;;;;;;;8.77;6.72;;;;;;;14.56;100.00;94002.47;5052693;28;20438;-55
2021/07/28 06:00:51;;;;;;;8.57;6.30;;;;;;;14.56;100.00;94022.13;5034364;28;20025;-51
2021/07/28 06:03:26;;;;;;;10.15;7.50;;;;;;;14.55;100.00;94020.53;5034907;28;20032;-48
2021/07/28 06:05:56;;;;;;;8.43;6.68;;;;;;;14.55;100.00;94028.63;5052574;28;20025;-52
2021/07/28 06:08:25;;;;;;;9.50;6.50;;;;;;;14.55;100.00;94033.22;5034893;28;20100;-49
2021/07/28 06:10:53;;;;;;;7.90;6.50;;;;;;;14.54;100.00;94042.38;5051350;28;20053;-48
2021/07/28 06:13:21;;;;;;;11.77;7.80;;;;;;;14.57;100.00;94053.34;5052464;28;20467;-51
2021/07/28 06:15:53;;;;;;;8.93;6.63;;;;;;;14.61;100.00;94046.22;5048284;28;20463;-50
2021/07/28 06:18:21;;;;;;;10.93;7.10;;;;;;;14.63;100.00;94043.19;5026835;28;20057;-49
2021/07/28 06:20:46;;;;;;;12.05;7.00;;;;;;;14.64;100.00;94032.09;5033565;28;20071;-56
2021/07/28 06:23:12;;;;;;;12.48;7.25;;;;;;;14.66;100.00;94034.50;5040196;28;20029;-56
